sensor_id;sensor_type;location;lat;lon;timestamp;temperature;humidity
9849;DHT22;4963;51.444;6.528;2022-08-21T00:01:51;19.20;99.90
9849;DHT22;4963;51.444;6.528;2022-08-21T00:04:18;19.20;99.90
9849;DHT22;4963;51.444;6.528;2022-08-21T00:06:44;19.10;99.90
9849;DHT22;4963;51.444;6.528;2022-08-21T00:09:11;19.10;99.90
9849;DHT22;4963;51.444;6.528;2022-08-21T00:11:40;19.10;99.90
9849;DHT22;4963;51.444;6.528;2022-08-21T00:14:08;19.10;99.90
9849;DHT22;4963;51.444;6.528;2022-08-21T00:16:35;19.10;99.90
9849;DHT22;4963;51.444;6.528;2022-08-21T00:19:04;19.00;99.90
9849;DHT22;4963;51.444;6.528;2022-08-21T00:21:31;19.00;99.90
9849;DHT22;4963;51.444;6.528;2022-08-21T00:23:59;18.90;99.90
9849;DHT22;4963;51.444;6.528;2022-08-21T00:26:26;18.80;99.90
9849;DHT22;4963;51.444;6.528;2022-08-21T00:28:54;18.80;99.90
9849;DHT22;4963;51.444;6.528;2022-08-21T00:31:21;18.80;99.90
9849;DHT22;4963;51.444;6.528;2022-08-21T00:33:48;18.80;99.90
9849;DHT22;4963;51.444;6.528;2022-08-21T00:36:15;18.70;99.90
9849;DHT22;4963;51.444;6.528;2022-08-21T00:38:42;18.70;99.90
9849;DHT22;4963;51.444;6.528;2022-08-21T00:41:10;18.80;99.90
9849;DHT22;4963;51.444;6.528;2022-08-21T00:43:38;18.70;99.90
9849;DHT22;4963;51.444;6.528;2022-08-21T00:46:07;18.70;99.90
9849;DHT22;4963;51.444;6.528;2022-08-21T00:48:34;18.70;99.90
9849;DHT22;4963;51.444;6.528;2022-08-21T00:51:05;18.70;99.90
9849;DHT22;4963;51.444;6.528;2022-08-21T00:53:34;18.60;99.90
9849;DHT22;4963;51.444;6.528;2022-08-21T00:56:03;18.60;99.90
9849;DHT22;4963;51.444;6.528;2022-08-21T00:58:31;18.60;99.90
9849;DHT22;4963;51.444;6.528;2022-08-21T01:01:03;18.60;99.90
9849;DHT22;4963;51.444;6.528;2022-08-21T01:03:32;18.50;99.90
9849;DHT22;4963;51.444;6.528;2022-08-21T01:06:00;18.50;99.90
9849;DHT22;4963;51.444;6.528;2022-08-21T01:08:27;18.50;99.90
9849;DHT22;4963;51.444;6.528;2022-08-21T01:10:57;18.50;99.90
9849;DHT22;4963;51.444;6.528;2022-08-21T01:13:26;18.40;99.90
9849;DHT22;4963;51.444;6.528;2022-08-21T01:15:55;18.30;99.90
9849;DHT22;4963;51.444;6.528;2022-08-21T01:18:22;18.30;99.90
9849;DHT22;4963;51.444;6.528;2022-08-21T01:21:04;18.20;99.90
9849;DHT22;4963;51.444;6.528;2022-08-21T01:23:32;18.10;99.90
9849;DHT22;4963;51.444;6.528;2022-08-21T01:25:59;18.10;99.90
9849;DHT22;4963;51.444;6.528;2022-08-21T01:28:28;18.00;99.90
9849;DHT22;4963;51.444;6.528;2022-08-21T01:30:57;18.00;99.90
9849;DHT22;4963;51.444;6.528;2022-08-21T01:33:24;18.00;99.90
9849;DHT22;4963;51.444;6.528;2022-08-21T01:35:52;18.00;99.90
9849;DHT22;4963;51.444;6.528;2022-08-21T01:38:20;18.00;99.90
9849;DHT22;4963;51.444;6.528;2022-08-21T01:40:47;18.00;99.90
9849;DHT22;4963;51.444;6.528;2022-08-21T01:43:14;18.00;99.90
9849;DHT22;4963;51.444;6.528;2022-08-21T01:45:41;17.90;99.90
9849;DHT22;4963;51.444;6.528;2022-08-21T01:48:08;17.90;99.90
9849;DHT22;4963;51.444;6.528;2022-08-21T01:50:35;17.90;99.90
9849;DHT22;4963;51.444;6.528;2022-08-21T01:53:02;17.90;99.90
9849;DHT22;4963;51.444;6.528;2022-08-21T01:55:31;17.80;99.90
9849;DHT22;4963;51.444;6.528;2022-08-21T01:57:58;17.80;99.90
9849;DHT22;4963;51.444;6.528;2022-08-21T02:00:26;17.80;99.90
9849;DHT22;4963;51.444;6.528;2022-08-21T02:02:53;17.80;99.90
9849;DHT22;4963;51.444;6.528;2022-08-21T02:05:20;17.80;99.90
9849;DHT22;4963;51.444;6.528;2022-08-21T02:07:48;17.80;99.90
9849;DHT22;4963;51.444;6.528;2022-08-21T02:10:17;17.70;99.90
9849;DHT22;4963;51.444;6.528;2022-08-21T02:12:46;17.70;99.90
9849;DHT22;4963;51.444;6.528;2022-08-21T02:15:13;17.70;99.90
9849;DHT22;4963;51.444;6.528;2022-08-21T02:17:43;17.70;99.90
9849;DHT22;4963;51.444;6.528;2022-08-21T02:20:11;17.70;99.90
9849;DHT22;4963;51.444;6.528;2022-08-21T02:22:41;17.70;99.90
9849;DHT22;4963;51.444;6.528;2022-08-21T02:25:08;17.80;99.90
9849;DHT22;4963;51.444;6.528;2022-08-21T02:27:39;17.80;99.90
9849;DHT22;4963;51.444;6.528;2022-08-21T02:30:11;17.80;99.90
9849;DHT22;4963;51.444;6.528;2022-08-21T02:32:39;17.80;99.90
9849;DHT22;4963;51.444;6.528;2022-08-21T02:35:07;17.70;99.90
9849;DHT22;4963;51.444;6.528;2022-08-21T02:37:41;17.70;99.90
9849;DHT22;4963;51.444;6.528;2022-08-21T02:40:09;17.70;99.90
9849;DHT22;4963;51.444;6.528;2022-08-21T02:42:36;17.70;99.90
9849;DHT22;4963;51.444;6.528;2022-08-21T02:45:04;17.70;99.90
9849;DHT22;4963;51.444;6.528;2022-08-21T02:47:33;17.60;99.90
9849;DHT22;4963;51.444;6.528;2022-08-21T02:50:00;17.60;99.90
9849;DHT22;4963;51.444;6.528;2022-08-21T02:52:26;17.50;99.90
9849;DHT22;4963;51.444;6.528;2022-08-21T02:54:53;17.50;99.90
9849;DHT22;4963;51.444;6.528;2022-08-21T02:57:20;17.50;99.90
9849;DHT22;4963;51.444;6.528;2022-08-21T02:59:47;17.50;99.90
9849;DHT22;4963;51.444;6.528;2022-08-21T03:02:14;17.50;99.90
9849;DHT22;4963;51.444;6.528;2022-08-21T03:04:42;17.50;99.90
9849;DHT22;4963;51.444;6.528;2022-08-21T03:07:09;17.40;99.90
9849;DHT22;4963;51.444;6.528;2022-08-21T03:09:36;17.40;99.90
9849;DHT22;4963;51.444;6.528;2022-08-21T03:12:04;17.40;99.90
9849;DHT22;4963;51.444;6.528;2022-08-21T03:14:31;17.30;99.90
9849;DHT22;4963;51.444;6.528;2022-08-21T03:16:58;17.30;99.90
9849;DHT22;4963;51.444;6.528;2022-08-21T03:19:25;17.40;99.90
9849;DHT22;4963;51.444;6.528;2022-08-21T03:21:53;17.30;99.90
9849;DHT22;4963;51.444;6.528;2022-08-21T03:24:20;17.30;99.90
9849;DHT22;4963;51.444;6.528;2022-08-21T03:26:47;17.30;99.90
9849;DHT22;4963;51.444;6.528;2022-08-21T03:29:14;17.20;99.90
9849;DHT22;4963;51.444;6.528;2022-08-21T03:31:40;17.20;99.90
9849;DHT22;4963;51.444;6.528;2022-08-21T03:34:07;17.10;99.90
9849;DHT22;4963;51.444;6.528;2022-08-21T03:36:34;17.20;99.90
9849;DHT22;4963;51.444;6.528;2022-08-21T03:39:03;17.20;99.90
9849;DHT22;4963;51.444;6.528;2022-08-21T03:41:30;17.20;99.90
9849;DHT22;4963;51.444;6.528;2022-08-21T03:43:57;17.20;99.90
9849;DHT22;4963;51.444;6.528;2022-08-21T03:46:24;17.10;99.90
9849;DHT22;4963;51.444;6.528;2022-08-21T03:48:51;17.10;99.90
9849;DHT22;4963;51.444;6.528;2022-08-21T03:51:18;17.00;99.90
9849;DHT22;4963;51.444;6.528;2022-08-21T03:53:45;16.90;99.90
9849;DHT22;4963;51.444;6.528;2022-08-21T03:56:13;16.90;99.90
9849;DHT22;4963;51.444;6.528;2022-08-21T03:58:41;16.90;99.90
9849;DHT22;4963;51.444;6.528;2022-08-21T04:01:09;17.00;99.90
9849;DHT22;4963;51.444;6.528;2022-08-21T04:03:37;16.90;99.90
9849;DHT22;4963;51.444;6.528;2022-08-21T04:06:05;16.90;99.90
9849;DHT22;4963;51.444;6.528;2022-08-21T04:08:32;17.00;99.90
9849;DHT22;4963;51.444;6.528;2022-08-21T04:11:00;16.90;99.90
9849;DHT22;4963;51.444;6.528;2022-08-21T04:13:29;17.00;99.90
9849;DHT22;4963;51.444;6.528;2022-08-21T04:15:56;17.00;99.90
9849;DHT22;4963;51.444;6.528;2022-08-21T04:18:24;17.00;99.90
9849;DHT22;4963;51.444;6.528;2022-08-21T04:20:52;17.00;99.90
9849;DHT22;4963;51.444;6.528;2022-08-21T04:23:21;17.00;99.90
9849;DHT22;4963;51.444;6.528;2022-08-21T04:25:48;17.00;99.90
9849;DHT22;4963;51.444;6.528;2022-08-21T04:28:15;17.10;99.90
9849;DHT22;4963;51.444;6.528;2022-08-21T04:30:43;17.10;99.90
9849;DHT22;4963;51.444;6.528;2022-08-21T04:33:11;17.10;99.90
9849;DHT22;4963;51.444;6.528;2022-08-21T04:35:37;17.10;99.90
9849;DHT22;4963;51.444;6.528;2022-08-21T04:38:04;17.10;99.90
9849;DHT22;4963;51.444;6.528;2022-08-21T04:40:31;17.10;99.90
9849;DHT22;4963;51.444;6.528;2022-08-21T04:43:02;17.10;99.90
9849;DHT22;4963;51.444;6.528;2022-08-21T04:45:32;17.10;99.90
9849;DHT22;4963;51.444;6.528;2022-08-21T04:48:04;17.10;99.90
9849;DHT22;4963;51.444;6.528;2022-08-21T04:50:36;17.10;99.90
9849;DHT22;4963;51.444;6.528;2022-08-21T04:53:05;17.00;99.90
9849;DHT22;4963;51.444;6.528;2022-08-21T04:55:33;17.00;99.90
9849;DHT22;4963;51.444;6.528;2022-08-21T04:58:00;17.00;99.90
9849;DHT22;4963;51.444;6.528;2022-08-21T05:00:27;16.90;99.90
9849;DHT22;4963;51.444;6.528;2022-08-21T05:02:56;16.90;99.90
9849;DHT22;4963;51.444;6.528;2022-08-21T05:05:27;16.90;99.90
9849;DHT22;4963;51.444;6.528;2022-08-21T05:07:56;16.90;99.90
9849;DHT22;4963;51.444;6.528;2022-08-21T05:10:23;17.00;99.90
9849;DHT22;4963;51.444;6.528;2022-08-21T05:12:50;17.10;99.90
9849;DHT22;4963;51.444;6.528;2022-08-21T05:15:17;17.30;99.90
9849;DHT22;4963;51.444;6.528;2022-08-21T05:17:45;17.40;99.90
9849;DHT22;4963;51.444;6.528;2022-08-21T05:20:13;17.70;99.90
9849;DHT22;4963;51.444;6.528;2022-08-21T05:22:42;18.00;99.90
9849;DHT22;4963;51.444;6.528;2022-08-21T05:25:10;18.30;99.90
9849;DHT22;4963;51.444;6.528;2022-08-21T05:27:37;18.60;99.90
9849;DHT22;4963;51.444;6.528;2022-08-21T05:30:05;19.00;99.90
9849;DHT22;4963;51.444;6.528;2022-08-21T05:32:32;19.50;99.90
9849;DHT22;4963;51.444;6.528;2022-08-21T05:34:59;19.90;99.90
9849;DHT22;4963;51.444;6.528;2022-08-21T05:37:26;20.30;99.90
9849;DHT22;4963;51.444;6.528;2022-08-21T05:39:55;20.70;99.90
9849;DHT22;4963;51.444;6.528;2022-08-21T05:42:21;20.90;99.90
9849;DHT22;4963;51.444;6.528;2022-08-21T05:44:48;21.20;99.90
9849;DHT22;4963;51.444;6.528;2022-08-21T05:47:15;21.30;99.90
9849;DHT22;4963;51.444;6.528;2022-08-21T05:49:42;21.50;99.90
9849;DHT22;4963;51.444;6.528;2022-08-21T05:52:09;21.60;99.90
9849;DHT22;4963;51.444;6.528;2022-08-21T05:54:36;21.80;99.90
9849;DHT22;4963;51.444;6.528;2022-08-21T05:57:05;22.00;99.90
9849;DHT22;4963;51.444;6.528;2022-08-21T05:59:33;22.10;99.90
9849;DHT22;4963;51.444;6.528;2022-08-21T06:02:01;22.30;99.90
9849;DHT22;4963;51.444;6.528;2022-08-21T06:04:28;22.40;99.60
9849;DHT22;4963;51.444;6.528;2022-08-21T06:06:55;22.50;99.40
9849;DHT22;4963;51.444;6.528;2022-08-21T06:09:22;22.60;99.30
9849;DHT22;4963;51.444;6.528;2022-08-21T06:11:49;22.60;98.90
9849;DHT22;4963;51.444;6.528;2022-08-21T06:14:17;22.70;98.90
9849;DHT22;4963;51.444;6.528;2022-08-21T06:16:44;22.70;98.70
9849;DHT22;4963;51.444;6.528;2022-08-21T06:19:11;22.80;98.60
9849;DHT22;4963;51.444;6.528;2022-08-21T06:21:38;22.80;98.50
9849;DHT22;4963;51.444;6.528;2022-08-21T06:24:05;22.70;98.50
9849;DHT22;4963;51.444;6.528;2022-08-21T06:26:33;22.50;98.80
9849;DHT22;4963;51.444;6.528;2022-08-21T06:28:59;22.40;99.00
9849;DHT22;4963;51.444;6.528;2022-08-21T06:31:28;22.20;99.10
9849;DHT22;4963;51.444;6.528;2022-08-21T06:33:55;22.20;99.40
9849;DHT22;4963;51.444;6.528;2022-08-21T06:36:22;22.10;99.70
9849;DHT22;4963;51.444;6.528;2022-08-21T06:38:49;22.00;99.70
9849;DHT22;4963;51.444;6.528;2022-08-21T06:41:16;21.70;99.90
9849;DHT22;4963;51.444;6.528;2022-08-21T06:43:43;21.60;99.90
9849;DHT22;4963;51.444;6.528;2022-08-21T06:46:10;21.50;99.90
9849;DHT22;4963;51.444;6.528;2022-08-21T06:48:38;21.50;99.90
9849;DHT22;4963;51.444;6.528;2022-08-21T06:51:05;21.60;99.90
9849;DHT22;4963;51.444;6.528;2022-08-21T06:53:32;21.50;99.90
9849;DHT22;4963;51.444;6.528;2022-08-21T06:55:59;21.50;99.90
9849;DHT22;4963;51.444;6.528;2022-08-21T06:58:26;21.50;99.90
9849;DHT22;4963;51.444;6.528;2022-08-21T07:00:53;21.50;99.90
9849;DHT22;4963;51.444;6.528;2022-08-21T07:03:22;21.60;99.90
9849;DHT22;4963;51.444;6.528;2022-08-21T07:05:50;21.80;99.90
9849;DHT22;4963;51.444;6.528;2022-08-21T07:08:17;22.10;99.90
9849;DHT22;4963;51.444;6.528;2022-08-21T07:10:45;22.50;99.90
9849;DHT22;4963;51.444;6.528;2022-08-21T07:13:12;22.90;99.50
9849;DHT22;4963;51.444;6.528;2022-08-21T07:15:39;23.40;98.50
9849;DHT22;4963;51.444;6.528;2022-08-21T07:18:06;23.90;97.20
9849;DHT22;4963;51.444;6.528;2022-08-21T07:20:33;24.30;96.40
9849;DHT22;4963;51.444;6.528;2022-08-21T07:23:06;24.60;96.10
9849;DHT22;4963;51.444;6.528;2022-08-21T07:25:33;24.90;95.30
9849;DHT22;4963;51.444;6.528;2022-08-21T07:28:00;25.00;94.90
9849;DHT22;4963;51.444;6.528;2022-08-21T07:30:27;24.80;94.90
9849;DHT22;4963;51.444;6.528;2022-08-21T07:32:54;24.80;95.00
9849;DHT22;4963;51.444;6.528;2022-08-21T07:35:22;24.90;95.00
9849;DHT22;4963;51.444;6.528;2022-08-21T07:37:49;25.00;95.10
9849;DHT22;4963;51.444;6.528;2022-08-21T07:40:17;25.10;94.60
9849;DHT22;4963;51.444;6.528;2022-08-21T07:42:46;25.30;94.00
9849;DHT22;4963;51.444;6.528;2022-08-21T07:45:15;25.40;93.50
9849;DHT22;4963;51.444;6.528;2022-08-21T07:47:43;25.50;93.60
9849;DHT22;4963;51.444;6.528;2022-08-21T07:50:11;25.60;93.40
9849;DHT22;4963;51.444;6.528;2022-08-21T07:52:38;25.70;93.20
9849;DHT22;4963;51.444;6.528;2022-08-21T07:55:06;25.90;93.00
9849;DHT22;4963;51.444;6.528;2022-08-21T07:57:34;25.90;92.30
9849;DHT22;4963;51.444;6.528;2022-08-21T08:00:02;26.00;92.50
9849;DHT22;4963;51.444;6.528;2022-08-21T08:02:29;26.00;92.00
9849;DHT22;4963;51.444;6.528;2022-08-21T08:04:59;26.20;91.60
9849;DHT22;4963;51.444;6.528;2022-08-21T08:07:26;26.20;91.50
9849;DHT22;4963;51.444;6.528;2022-08-21T08:09:53;26.20;91.70
9849;DHT22;4963;51.444;6.528;2022-08-21T08:12:20;26.20;91.80
9849;DHT22;4963;51.444;6.528;2022-08-21T08:14:48;26.30;91.90
9849;DHT22;4963;51.444;6.528;2022-08-21T08:17:15;26.40;91.70
9849;DHT22;4963;51.444;6.528;2022-08-21T08:19:44;26.60;91.70
9849;DHT22;4963;51.444;6.528;2022-08-21T08:22:14;26.70;91.40
9849;DHT22;4963;51.444;6.528;2022-08-21T08:24:41;26.80;90.90
9849;DHT22;4963;51.444;6.528;2022-08-21T08:27:08;26.90;90.80
9849;DHT22;4963;51.444;6.528;2022-08-21T08:29:35;27.00;90.80
9849;DHT22;4963;51.444;6.528;2022-08-21T08:32:05;27.10;90.50
9849;DHT22;4963;51.444;6.528;2022-08-21T08:34:33;27.10;90.30
9849;DHT22;4963;51.444;6.528;2022-08-21T08:36:59;27.20;90.30
9849;DHT22;4963;51.444;6.528;2022-08-21T08:39:27;27.30;89.70
9849;DHT22;4963;51.444;6.528;2022-08-21T08:41:58;27.20;89.90
9849;DHT22;4963;51.444;6.528;2022-08-21T08:44:26;26.90;90.30
9849;DHT22;4963;51.444;6.528;2022-08-21T08:46:53;26.60;90.30
9849;DHT22;4963;51.444;6.528;2022-08-21T08:49:26;26.30;90.70
9849;DHT22;4963;51.444;6.528;2022-08-21T08:51:55;26.20;91.30
9849;DHT22;4963;51.444;6.528;2022-08-21T08:54:28;26.10;91.50
9849;DHT22;4963;51.444;6.528;2022-08-21T08:56:59;26.10;91.30
9849;DHT22;4963;51.444;6.528;2022-08-21T08:59:34;26.00;91.60
9849;DHT22;4963;51.444;6.528;2022-08-21T09:02:03;26.10;91.90
9849;DHT22;4963;51.444;6.528;2022-08-21T09:04:32;26.30;91.60
9849;DHT22;4963;51.444;6.528;2022-08-21T09:07:11;26.50;91.40
9849;DHT22;4963;51.444;6.528;2022-08-21T09:09:49;26.70;91.00
9849;DHT22;4963;51.444;6.528;2022-08-21T09:15:14;27.00;90.30
9849;DHT22;4963;51.444;6.528;2022-08-21T09:17:55;27.20;90.50
9849;DHT22;4963;51.444;6.528;2022-08-21T09:20:33;27.30;90.30
9849;DHT22;4963;51.444;6.528;2022-08-21T09:23:13;27.20;90.40
9849;DHT22;4963;51.444;6.528;2022-08-21T09:25:49;27.10;90.30
9849;DHT22;4963;51.444;6.528;2022-08-21T09:28:19;27.10;90.50
9849;DHT22;4963;51.444;6.528;2022-08-21T09:30:46;26.90;90.90
9849;DHT22;4963;51.444;6.528;2022-08-21T09:33:13;26.80;90.90
9849;DHT22;4963;51.444;6.528;2022-08-21T09:35:53;26.90;90.90
9849;DHT22;4963;51.444;6.528;2022-08-21T09:38:30;26.90;91.10
9849;DHT22;4963;51.444;6.528;2022-08-21T09:41:01;27.00;90.70
9849;DHT22;4963;51.444;6.528;2022-08-21T09:43:29;27.00;90.00
9849;DHT22;4963;51.444;6.528;2022-08-21T09:46:19;26.90;89.70
9849;DHT22;4963;51.444;6.528;2022-08-21T09:48:48;26.70;90.10
9849;DHT22;4963;51.444;6.528;2022-08-21T09:51:18;26.40;90.40
9849;DHT22;4963;51.444;6.528;2022-08-21T09:53:49;26.40;90.00
9849;DHT22;4963;51.444;6.528;2022-08-21T09:56:21;26.20;90.00
9849;DHT22;4963;51.444;6.528;2022-08-21T09:59:18;26.20;90.10
9849;DHT22;4963;51.444;6.528;2022-08-21T10:01:47;26.20;90.60
9849;DHT22;4963;51.444;6.528;2022-08-21T10:04:14;26.20;90.60
9849;DHT22;4963;51.444;6.528;2022-08-21T10:06:43;26.30;90.10
9849;DHT22;4963;51.444;6.528;2022-08-21T10:09:11;26.30;90.00
9849;DHT22;4963;51.444;6.528;2022-08-21T10:11:40;26.20;90.20
9849;DHT22;4963;51.444;6.528;2022-08-21T10:14:16;26.20;90.30
9849;DHT22;4963;51.444;6.528;2022-08-21T10:16:53;26.30;90.60
9849;DHT22;4963;51.444;6.528;2022-08-21T10:19:31;26.30;90.30
9849;DHT22;4963;51.444;6.528;2022-08-21T10:22:15;26.40;90.40
9849;DHT22;4963;51.444;6.528;2022-08-21T10:24:50;26.40;90.30
9849;DHT22;4963;51.444;6.528;2022-08-21T10:27:26;26.30;90.00
9849;DHT22;4963;51.444;6.528;2022-08-21T10:30:02;26.30;90.00
9849;DHT22;4963;51.444;6.528;2022-08-21T10:32:41;26.30;89.10
9849;DHT22;4963;51.444;6.528;2022-08-21T10:35:13;26.20;88.60
9849;DHT22;4963;51.444;6.528;2022-08-21T10:37:56;26.20;87.70
9849;DHT22;4963;51.444;6.528;2022-08-21T10:40:29;26.10;89.10
9849;DHT22;4963;51.444;6.528;2022-08-21T10:43:05;26.00;89.60
9849;DHT22;4963;51.444;6.528;2022-08-21T10:45:42;26.00;89.50
9849;DHT22;4963;51.444;6.528;2022-08-21T10:48:18;25.90;89.60
9849;DHT22;4963;51.444;6.528;2022-08-21T10:50:51;25.90;90.00
9849;DHT22;4963;51.444;6.528;2022-08-21T10:53:41;25.90;90.00
9849;DHT22;4963;51.444;6.528;2022-08-21T10:56:16;26.00;90.00
9849;DHT22;4963;51.444;6.528;2022-08-21T10:58:59;25.90;89.80
9849;DHT22;4963;51.444;6.528;2022-08-21T11:01:31;25.90;90.40
9849;DHT22;4963;51.444;6.528;2022-08-21T11:04:09;25.90;89.70
9849;DHT22;4963;51.444;6.528;2022-08-21T11:06:42;25.80;88.90
9849;DHT22;4963;51.444;6.528;2022-08-21T11:09:14;25.80;89.90
9849;DHT22;4963;51.444;6.528;2022-08-21T11:11:45;25.80;90.00
9849;DHT22;4963;51.444;6.528;2022-08-21T11:14:21;25.90;90.00
9849;DHT22;4963;51.444;6.528;2022-08-21T11:16:56;26.00;89.60
9849;DHT22;4963;51.444;6.528;2022-08-21T11:19:28;26.00;90.00
9849;DHT22;4963;51.444;6.528;2022-08-21T11:22:02;26.00;90.00
9849;DHT22;4963;51.444;6.528;2022-08-21T11:24:40;26.00;89.40
9849;DHT22;4963;51.444;6.528;2022-08-21T11:27:20;26.10;90.20
9849;DHT22;4963;51.444;6.528;2022-08-21T11:29:51;26.20;89.40
9849;DHT22;4963;51.444;6.528;2022-08-21T11:32:51;26.30;88.70
9849;DHT22;4963;51.444;6.528;2022-08-21T11:35:30;26.30;88.10
9849;DHT22;4963;51.444;6.528;2022-08-21T11:38:06;26.30;87.30
9849;DHT22;4963;51.444;6.528;2022-08-21T11:40:50;26.30;88.70
9849;DHT22;4963;51.444;6.528;2022-08-21T11:43:24;26.20;87.70
9849;DHT22;4963;51.444;6.528;2022-08-21T11:45:55;26.20;88.40
9849;DHT22;4963;51.444;6.528;2022-08-21T11:48:34;26.10;88.10
9849;DHT22;4963;51.444;6.528;2022-08-21T11:51:07;26.10;88.90
9849;DHT22;4963;51.444;6.528;2022-08-21T11:53:39;26.10;88.30
9849;DHT22;4963;51.444;6.528;2022-08-21T11:56:12;26.10;88.90
9849;DHT22;4963;51.444;6.528;2022-08-21T11:58:43;26.00;88.60
9849;DHT22;4963;51.444;6.528;2022-08-21T12:01:16;26.10;90.30
9849;DHT22;4963;51.444;6.528;2022-08-21T12:03:52;26.20;90.00
9849;DHT22;4963;51.444;6.528;2022-08-21T12:06:29;26.30;89.90
9849;DHT22;4963;51.444;6.528;2022-08-21T12:08:59;26.40;89.30
9849;DHT22;4963;51.444;6.528;2022-08-21T12:11:28;26.40;89.40
9849;DHT22;4963;51.444;6.528;2022-08-21T12:13:57;26.40;88.40
9849;DHT22;4963;51.444;6.528;2022-08-21T12:16:32;26.30;87.80
9849;DHT22;4963;51.444;6.528;2022-08-21T12:19:04;26.30;88.20
9849;DHT22;4963;51.444;6.528;2022-08-21T12:21:31;26.40;89.10
9849;DHT22;4963;51.444;6.528;2022-08-21T12:24:05;26.50;88.80
9849;DHT22;4963;51.444;6.528;2022-08-21T12:26:50;26.50;87.70
9849;DHT22;4963;51.444;6.528;2022-08-21T12:29:22;26.50;87.60
9849;DHT22;4963;51.444;6.528;2022-08-21T12:31:56;26.40;87.80
9849;DHT22;4963;51.444;6.528;2022-08-21T12:34:27;26.40;88.70
9849;DHT22;4963;51.444;6.528;2022-08-21T12:36:58;26.40;88.80
9849;DHT22;4963;51.444;6.528;2022-08-21T12:39:29;26.40;89.30
9849;DHT22;4963;51.444;6.528;2022-08-21T12:42:00;26.40;89.20
9849;DHT22;4963;51.444;6.528;2022-08-21T12:44:37;26.50;89.20
9849;DHT22;4963;51.444;6.528;2022-08-21T12:47:14;26.50;89.20
9849;DHT22;4963;51.444;6.528;2022-08-21T12:49:51;26.60;89.00
9849;DHT22;4963;51.444;6.528;2022-08-21T12:52:21;26.50;88.70
9849;DHT22;4963;51.444;6.528;2022-08-21T12:54:48;26.40;87.80
9849;DHT22;4963;51.444;6.528;2022-08-21T12:57:22;26.40;87.70
9849;DHT22;4963;51.444;6.528;2022-08-21T12:59:55;26.40;87.90
9849;DHT22;4963;51.444;6.528;2022-08-21T13:02:24;26.50;86.80
9849;DHT22;4963;51.444;6.528;2022-08-21T13:04:52;26.50;86.60
9849;DHT22;4963;51.444;6.528;2022-08-21T13:07:25;26.60;85.60
9849;DHT22;4963;51.444;6.528;2022-08-21T13:09:55;26.70;86.10
9849;DHT22;4963;51.444;6.528;2022-08-21T13:12:25;26.70;85.90
9849;DHT22;4963;51.444;6.528;2022-08-21T13:14:56;26.70;85.70
9849;DHT22;4963;51.444;6.528;2022-08-21T13:17:24;26.60;85.50
9849;DHT22;4963;51.444;6.528;2022-08-21T13:19:59;26.40;86.40
9849;DHT22;4963;51.444;6.528;2022-08-21T13:22:27;26.40;87.20
9849;DHT22;4963;51.444;6.528;2022-08-21T13:24:55;26.40;86.70
9849;DHT22;4963;51.444;6.528;2022-08-21T13:27:28;26.50;86.90
9849;DHT22;4963;51.444;6.528;2022-08-21T13:30:05;26.60;86.70
9849;DHT22;4963;51.444;6.528;2022-08-21T13:32:35;26.60;85.90
9849;DHT22;4963;51.444;6.528;2022-08-21T13:35:09;26.60;85.90
9849;DHT22;4963;51.444;6.528;2022-08-21T13:37:38;26.60;85.10
9849;DHT22;4963;51.444;6.528;2022-08-21T13:40:09;26.60;83.70
9849;DHT22;4963;51.444;6.528;2022-08-21T13:42:42;26.40;84.60
9849;DHT22;4963;51.444;6.528;2022-08-21T13:45:15;26.40;87.20
9849;DHT22;4963;51.444;6.528;2022-08-21T13:47:43;26.40;85.60
9849;DHT22;4963;51.444;6.528;2022-08-21T13:50:14;26.40;86.30
9849;DHT22;4963;51.444;6.528;2022-08-21T13:52:53;26.40;86.00
9849;DHT22;4963;51.444;6.528;2022-08-21T13:55:20;26.40;85.60
9849;DHT22;4963;51.444;6.528;2022-08-21T13:57:59;26.40;85.60
9849;DHT22;4963;51.444;6.528;2022-08-21T14:00:28;26.40;85.80
9849;DHT22;4963;51.444;6.528;2022-08-21T14:03:02;26.40;86.50
9849;DHT22;4963;51.444;6.528;2022-08-21T14:05:32;26.50;86.30
9849;DHT22;4963;51.444;6.528;2022-08-21T14:08:03;26.40;85.90
9849;DHT22;4963;51.444;6.528;2022-08-21T14:10:31;26.40;86.90
9849;DHT22;4963;51.444;6.528;2022-08-21T14:13:05;26.50;85.20
9849;DHT22;4963;51.444;6.528;2022-08-21T14:15:34;26.50;85.90
9849;DHT22;4963;51.444;6.528;2022-08-21T14:18:09;26.60;85.80
9849;DHT22;4963;51.444;6.528;2022-08-21T14:20:39;26.60;86.10
9849;DHT22;4963;51.444;6.528;2022-08-21T14:23:06;26.80;86.60
9849;DHT22;4963;51.444;6.528;2022-08-21T14:25:39;26.80;86.60
9849;DHT22;4963;51.444;6.528;2022-08-21T14:28:14;26.90;85.40
9849;DHT22;4963;51.444;6.528;2022-08-21T14:30:43;26.90;84.70
9849;DHT22;4963;51.444;6.528;2022-08-21T14:33:20;26.80;83.50
9849;DHT22;4963;51.444;6.528;2022-08-21T14:35:48;26.80;84.00
9849;DHT22;4963;51.444;6.528;2022-08-21T14:38:16;26.80;84.20
9849;DHT22;4963;51.444;6.528;2022-08-21T14:40:44;26.60;83.70
9849;DHT22;4963;51.444;6.528;2022-08-21T14:43:14;26.50;84.60
9849;DHT22;4963;51.444;6.528;2022-08-21T14:45:41;26.50;84.50
9849;DHT22;4963;51.444;6.528;2022-08-21T14:48:09;26.50;83.40
9849;DHT22;4963;51.444;6.528;2022-08-21T14:50:36;26.60;82.80
9849;DHT22;4963;51.444;6.528;2022-08-21T14:53:03;26.60;83.80
9849;DHT22;4963;51.444;6.528;2022-08-21T14:55:31;26.60;81.70
9849;DHT22;4963;51.444;6.528;2022-08-21T14:58:21;26.60;83.20
9849;DHT22;4963;51.444;6.528;2022-08-21T15:00:50;26.80;84.10
9849;DHT22;4963;51.444;6.528;2022-08-21T15:03:18;26.90;82.60
9849;DHT22;4963;51.444;6.528;2022-08-21T15:05:47;27.00;82.20
9849;DHT22;4963;51.444;6.528;2022-08-21T15:08:14;27.00;82.40
9849;DHT22;4963;51.444;6.528;2022-08-21T15:10:40;27.10;80.30
9849;DHT22;4963;51.444;6.528;2022-08-21T15:13:08;27.00;80.90
9849;DHT22;4963;51.444;6.528;2022-08-21T15:15:40;27.00;81.50
9849;DHT22;4963;51.444;6.528;2022-08-21T15:18:07;27.00;81.40
9849;DHT22;4963;51.444;6.528;2022-08-21T15:20:34;27.10;81.30
9849;DHT22;4963;51.444;6.528;2022-08-21T15:23:02;27.10;79.10
9849;DHT22;4963;51.444;6.528;2022-08-21T15:25:29;27.00;77.60
9849;DHT22;4963;51.444;6.528;2022-08-21T15:27:56;27.00;79.20
9849;DHT22;4963;51.444;6.528;2022-08-21T15:30:22;27.00;80.60
9849;DHT22;4963;51.444;6.528;2022-08-21T15:32:51;26.90;79.30
9849;DHT22;4963;51.444;6.528;2022-08-21T15:35:18;26.90;79.30
9849;DHT22;4963;51.444;6.528;2022-08-21T15:37:45;26.80;80.20
9849;DHT22;4963;51.444;6.528;2022-08-21T15:40:12;26.80;80.40
9849;DHT22;4963;51.444;6.528;2022-08-21T15:42:40;26.80;78.40
9849;DHT22;4963;51.444;6.528;2022-08-21T15:45:09;26.60;77.80
9849;DHT22;4963;51.444;6.528;2022-08-21T15:47:39;26.50;77.20
9849;DHT22;4963;51.444;6.528;2022-08-21T15:50:11;26.40;79.10
9849;DHT22;4963;51.444;6.528;2022-08-21T15:52:38;26.40;80.30
9849;DHT22;4963;51.444;6.528;2022-08-21T15:55:06;26.30;79.00
9849;DHT22;4963;51.444;6.528;2022-08-21T15:57:34;26.30;80.20
9849;DHT22;4963;51.444;6.528;2022-08-21T16:00:07;26.20;80.80
9849;DHT22;4963;51.444;6.528;2022-08-21T16:02:40;26.10;78.80
9849;DHT22;4963;51.444;6.528;2022-08-21T16:05:10;26.10;79.90
9849;DHT22;4963;51.444;6.528;2022-08-21T16:07:38;26.10;80.00
9849;DHT22;4963;51.444;6.528;2022-08-21T16:10:06;26.10;80.30
9849;DHT22;4963;51.444;6.528;2022-08-21T16:12:36;26.00;80.00
9849;DHT22;4963;51.444;6.528;2022-08-21T16:15:07;26.00;80.50
9849;DHT22;4963;51.444;6.528;2022-08-21T16:17:35;26.00;81.50
9849;DHT22;4963;51.444;6.528;2022-08-21T16:20:05;25.90;82.80
9849;DHT22;4963;51.444;6.528;2022-08-21T16:22:34;25.90;83.30